Time;durP1;ratioP1;P1;durP2;ratioP2;P2;SDS_P1;SDS_P2;PMS_P1;PMS_P2;Temp;Humidity;BMP_temperature;BMP_pressure;BME280_temperature;BME280_humidity;BME280_pressure;Samples;Min_cycle;Max_cycle;Signal;HPM_P1;HPM_P2
2022/04/23 00:01:42;;;;;;;20.75;13.02;;;;;;;10.94;79.54;98666.59;4795580;29;20078;-77
2022/04/23 00:04:09;;;;;;;21.52;14.00;;;;;;;10.82;81.59;98672.13;4827895;29;20034;-77
2022/04/23 00:06:34;;;;;;;19.08;12.93;;;;;;;10.83;81.59;98679.28;4828095;29;20037;-77
2022/04/23 00:09:00;;;;;;;19.90;13.77;;;;;;;10.80;82.26;98673.59;4827465;29;20030;-77
2022/04/23 00:11:26;;;;;;;17.90;12.82;;;;;;;10.81;80.47;98669.66;4820849;29;20049;-77
2022/04/23 00:13:51;;;;;;;18.63;12.88;;;;;;;10.82;81.51;98672.13;4830197;29;20441;-77
2022/04/23 00:16:17;;;;;;;20.38;13.70;;;;;;;10.76;81.91;98667.94;4820158;29;20027;-77
2022/04/23 00:18:43;;;;;;;19.02;13.05;;;;;;;10.77;81.98;98668.72;4826659;29;20484;-77
2022/04/23 00:21:09;;;;;;;18.38;13.05;;;;;;;10.74;82.77;98670.22;4811258;29;20034;-77
2022/04/23 00:23:34;;;;;;;19.30;13.80;;;;;;;10.68;83.70;98660.47;4827843;29;20046;-77
2022/04/23 00:26:01;;;;;;;16.98;11.48;;;;;;;10.72;81.95;98655.84;4827658;29;20472;-77
2022/04/23 00:28:26;;;;;;;16.67;12.48;;;;;;;10.74;81.97;98664.66;4827779;29;20091;-77
2022/04/23 00:30:52;;;;;;;15.68;12.20;;;;;;;10.72;82.16;98662.22;4822196;29;20042;-77
2022/04/23 00:33:18;;;;;;;16.30;12.15;;;;;;;10.74;82.87;98664.66;4823512;29;20051;-77
2022/04/23 00:35:44;;;;;;;15.85;12.30;;;;;;;10.79;82.03;98650.59;4827566;29;20034;-77
2022/04/23 00:38:10;;;;;;;19.02;12.85;;;;;;;10.80;83.39;98648.63;4795947;29;20049;-77
2022/04/23 00:40:37;;;;;;;17.77;12.30;;;;;;;10.80;81.63;98643.88;4827149;29;20026;-77
2022/04/23 00:43:09;;;;;;;18.17;12.73;;;;;;;10.80;82.80;98634.72;4827346;29;20041;-77
2022/04/23 00:45:35;;;;;;;18.73;12.02;;;;;;;10.84;82.13;98633.72;4827454;29;20476;-77
2022/04/23 00:48:00;;;;;;;18.70;11.88;;;;;;;10.86;80.96;98634.16;4795681;29;20065;-77
2022/04/23 00:50:26;;;;;;;16.20;12.05;;;;;;;10.86;82.30;98634.16;4795858;29;20030;-77
2022/04/23 00:52:53;;;;;;;18.60;12.23;;;;;;;10.92;81.25;98627.25;4827329;29;20042;-77
2022/04/23 00:55:19;;;;;;;19.67;11.93;;;;;;;10.92;81.55;98620.88;4821008;29;20052;-77
2022/04/23 00:57:45;;;;;;;18.52;12.63;;;;;;;10.91;83.10;98625.63;4797600;29;20038;-77
2022/04/23 01:00:11;;;;;;;15.75;12.20;;;;;;;10.94;81.35;98621.34;4795928;29;20046;-77
2022/04/23 01:02:36;;;;;;;16.98;11.88;;;;;;;11.01;81.43;98618.84;4810727;29;20034;-77
2022/04/23 01:05:03;;;;;;;16.77;12.10;;;;;;;10.99;81.42;98606.44;4795553;29;20042;-77
2022/04/23 01:07:29;;;;;;;20.92;12.93;;;;;;;11.02;81.37;98611.31;4827078;29;20042;-77
2022/04/23 01:09:55;;;;;;;16.40;11.23;;;;;;;11.04;80.96;98606.22;4810368;29;20037;-77
2022/04/23 01:12:20;;;;;;;17.27;11.95;;;;;;;11.05;81.66;98613.41;4795312;29;20035;-77
2022/04/23 01:15:02;;;;;;;18.58;11.35;;;;;;;11.07;81.44;98605.53;4830564;29;20396;-77
2022/04/23 01:17:28;;;;;;;18.95;12.50;;;;;;;11.06;83.03;98603.91;4826875;29;20077;-77
2022/04/23 01:19:53;;;;;;;15.20;11.60;;;;;;;11.09;81.96;98597.69;4814375;29;20038;-77
2022/04/23 01:22:19;;;;;;;17.23;11.75;;;;;;;11.08;82.36;98596.03;4830530;29;20050;-77
2022/04/23 01:24:44;;;;;;;18.13;11.98;;;;;;;11.05;82.77;98593.97;4830716;29;20038;-77
2022/04/23 01:27:13;;;;;;;19.15;12.35;;;;;;;11.02;84.23;98595.44;4830199;29;20034;-77
2022/04/23 01:29:38;;;;;;;19.10;11.55;;;;;;;11.02;82.18;98589.91;4830576;29;20042;-77
2022/04/23 01:32:04;;;;;;;16.02;12.35;;;;;;;10.99;83.56;98581.44;4788926;29;20087;-77
2022/04/23 01:34:30;;;;;;;17.88;12.77;;;;;;;10.98;83.23;98585.34;4806670;29;20687;-77
2022/04/23 01:36:56;;;;;;;18.42;12.90;;;;;;;10.96;82.83;98585.72;4813997;29;20034;-77
2022/04/23 01:39:21;;;;;;;18.60;12.65;;;;;;;10.92;83.63;98582.00;4814262;29;20031;-77
2022/04/23 01:41:47;;;;;;;18.10;12.48;;;;;;;10.91;83.71;98577.59;4830042;29;20070;-77
2022/04/23 01:44:13;;;;;;;19.63;13.10;;;;;;;10.85;83.83;98568.69;4799044;29;20049;-77
2022/04/23 01:46:39;;;;;;;18.23;12.48;;;;;;;10.83;84.01;98562.66;4813966;29;20113;-77
2022/04/23 01:49:04;;;;;;;18.85;13.20;;;;;;;10.76;84.67;98562.41;4830097;29;20109;-77
2022/04/23 01:51:30;;;;;;;18.30;12.43;;;;;;;10.80;84.50;98568.88;4813653;29;20031;-77
2022/04/23 01:53:55;;;;;;;18.77;13.55;;;;;;;10.74;84.79;98564.72;4813772;29;20031;-77
2022/04/23 01:56:21;;;;;;;18.45;13.35;;;;;;;10.73;84.85;98563.09;4829685;29;20043;-77
2022/04/23 01:58:46;;;;;;;21.70;14.32;;;;;;;10.66;85.63;98560.06;4830024;29;20041;-77
2022/04/23 02:01:12;;;;;;;20.67;13.05;;;;;;;10.65;85.25;98561.22;4798383;29;20023;-77
2022/04/23 02:03:38;;;;;;;19.75;13.55;;;;;;;10.65;85.31;98559.25;4830167;29;20049;-77
2022/04/23 02:06:04;;;;;;;21.17;13.90;;;;;;;10.62;86.10;98559.13;4813721;29;20034;-77
2022/04/23 02:08:30;;;;;;;18.58;12.77;;;;;;;10.63;85.40;98563.53;4798326;29;20026;-77
2022/04/23 02:10:55;;;;;;;18.98;13.65;;;;;;;10.61;85.05;98554.72;4829351;29;20038;-77
2022/04/23 02:13:21;;;;;;;20.13;13.93;;;;;;;10.62;85.85;98559.13;4813768;29;20041;-77
2022/04/23 02:15:46;;;;;;;19.38;13.10;;;;;;;10.58;85.33;98550.66;4825631;29;20038;-77
2022/04/23 02:18:14;;;;;;;21.45;14.45;;;;;;;10.57;85.38;98548.25;4794979;29;20121;-77
2022/04/23 02:20:39;;;;;;;21.88;14.70;;;;;;;10.55;85.61;98545.00;4796420;29;20116;-77
2022/04/23 02:23:05;;;;;;;21.52;14.63;;;;;;;10.51;85.69;98536.53;4820447;29;20442;-77
2022/04/23 02:25:34;;;;;;;17.55;13.23;;;;;;;10.54;84.96;98543.38;4812208;29;20584;-77
2022/04/23 02:27:59;;;;;;;18.75;14.13;;;;;;;10.49;85.57;98536.88;4813826;29;20034;-77
2022/04/23 02:30:25;;;;;;;18.95;13.63;;;;;;;10.50;84.86;98532.97;4827481;29;20038;-77
2022/04/23 02:32:50;;;;;;;19.27;14.13;;;;;;;10.42;85.50;98531.06;4817750;29;20023;-77
2022/04/23 02:35:16;;;;;;;20.40;14.98;;;;;;;10.35;85.66;98528.03;4828050;29;20038;-77
2022/04/23 02:37:44;;;;;;;22.02;14.45;;;;;;;10.37;85.26;98527.72;4798119;29;20044;-77
2022/04/23 02:40:10;;;;;;;22.88;14.52;;;;;;;10.34;84.75;98529.19;4829314;29;20061;-77
2022/04/23 02:42:37;;;;;;;21.00;14.23;;;;;;;10.32;84.83;98519.59;4812912;29;20030;-77
2022/04/23 02:45:09;;;;;;;21.42;14.82;;;;;;;10.28;85.44;98522.25;4812760;29;20038;-77
2022/04/23 02:47:45;;;;;;;21.63;14.30;;;;;;;10.29;84.22;98521.06;4828967;29;20137;-77
2022/04/23 02:50:11;;;;;;;20.08;13.73;;;;;;;10.33;83.82;98524.78;4812794;29;20048;-77
2022/04/23 02:52:39;;;;;;;20.08;15.15;;;;;;;10.27;84.96;98524.19;4812836;29;20038;-77
2022/04/23 02:55:05;;;;;;;20.88;15.02;;;;;;;10.22;84.37;98513.28;4812818;29;20403;-77
2022/04/23 02:57:31;;;;;;;18.85;14.10;;;;;;;10.18;85.35;98517.06;4796879;29;20052;-77
2022/04/23 02:59:57;;;;;;;21.33;15.32;;;;;;;10.19;84.19;98511.16;4797663;29;20042;-77
2022/04/23 03:02:23;;;;;;;23.48;15.95;;;;;;;10.18;84.63;98506.78;4797499;29;20034;-77
2022/04/23 03:04:48;;;;;;;22.88;16.10;;;;;;;10.16;84.82;98509.06;4797578;29;20047;-77
2022/04/23 03:07:14;;;;;;;22.70;16.58;;;;;;;10.11;85.28;98502.94;4828842;29;20515;-77
2022/04/23 03:09:39;;;;;;;25.23;16.00;;;;;;;10.11;85.13;98495.41;4782279;29;20042;-77
2022/04/23 03:12:05;;;;;;;23.23;14.30;;;;;;;10.10;84.67;98493.00;4800196;29;20044;-77
2022/04/23 03:14:31;;;;;;;20.83;15.77;;;;;;;10.05;85.05;98494.81;4806398;29;20039;-76
2022/04/23 03:16:56;;;;;;;21.20;15.10;;;;;;;10.05;85.21;98485.69;4787385;29;20046;-77
2022/04/23 03:19:22;;;;;;;25.45;17.33;;;;;;;10.04;85.45;98484.88;4797146;29;20058;-77
2022/04/23 03:21:47;;;;;;;26.05;15.52;;;;;;;10.03;85.24;98491.59;4841105;29;20034;-77
2022/04/23 03:24:13;;;;;;;21.98;16.05;;;;;;;10.06;84.84;98481.78;4812300;29;20046;-77
2022/04/23 03:26:38;;;;;;;23.95;15.57;;;;;;;10.07;84.52;98486.16;4812105;29;20083;-77
2022/04/23 03:29:04;;;;;;;26.23;16.27;;;;;;;10.07;84.82;98481.41;4812073;29;20476;-77
2022/04/23 03:31:30;;;;;;;26.33;17.23;;;;;;;10.02;85.73;98475.28;4818743;29;20038;-77
2022/04/23 03:33:56;;;;;;;26.85;17.30;;;;;;;10.01;86.05;98474.47;4811354;29;20050;-77
2022/04/23 03:36:21;;;;;;;25.15;16.63;;;;;;;10.00;85.54;98470.09;4828090;29;20046;-77
2022/04/23 03:38:47;;;;;;;24.92;16.80;;;;;;;10.06;85.05;98465.13;4828529;29;20030;-77
2022/04/23 03:41:13;;;;;;;23.23;17.25;;;;;;;10.08;84.94;98465.59;4827974;29;20392;-77
2022/04/23 03:43:38;;;;;;;22.05;16.17;;;;;;;10.08;84.95;98462.81;4811966;29;20038;-77
2022/04/23 03:46:04;;;;;;;25.20;17.30;;;;;;;10.05;85.38;98464.31;4828451;29;20042;-77
2022/04/23 03:48:29;;;;;;;21.48;15.57;;;;;;;10.09;84.12;98460.88;4828370;29;20035;-77
2022/04/23 03:50:55;;;;;;;21.67;16.20;;;;;;;10.10;83.90;98465.25;4828096;29;20034;-77
2022/04/23 03:53:20;;;;;;;22.55;16.52;;;;;;;10.12;83.62;98461.00;4811745;29;20038;-77
2022/04/23 03:55:46;;;;;;;22.02;16.98;;;;;;;10.13;83.88;98457.06;4826941;29;20046;-77
2022/04/23 03:58:13;;;;;;;23.70;16.58;;;;;;;10.13;84.51;98439.59;4811711;29;20038;-77
2022/04/23 04:00:39;;;;;;;25.40;17.50;;;;;;;10.11;85.38;98441.91;4827878;29;20043;-77
2022/04/23 04:03:04;;;;;;;24.77;17.75;;;;;;;10.11;84.99;98441.91;4828144;29;20038;-77
2022/04/23 04:05:32;;;;;;;27.23;18.88;;;;;;;10.07;86.59;98441.78;4827411;29;20041;-77
2022/04/23 04:07:58;;;;;;;26.98;19.10;;;;;;;10.06;85.76;98440.97;4811591;29;20038;-77
2022/04/23 04:10:23;;;;;;;24.60;17.90;;;;;;;10.11;85.80;98447.44;4828099;29;20042;-77
2022/04/23 04:12:49;;;;;;;22.48;17.48;;;;;;;10.16;83.97;98433.38;4811609;29;20065;-77
2022/04/23 04:15:15;;;;;;;24.80;17.30;;;;;;;10.15;86.16;98431.75;4827641;29;20038;-77
2022/04/23 04:17:41;;;;;;;22.88;16.63;;;;;;;10.19;85.40;98438.22;4774219;29;20038;-77
2022/04/23 04:20:11;;;;;;;26.05;18.05;;;;;;;10.20;85.55;98428.78;4811106;29;20403;-77
2022/04/23 04:22:44;;;;;;;29.20;19.77;;;;;;;10.15;87.27;98438.13;4827651;29;20042;-77
2022/04/23 04:25:10;;;;;;;23.83;17.50;;;;;;;10.20;85.99;98437.09;4827571;29;20099;-77
2022/04/23 04:27:36;;;;;;;25.67;18.25;;;;;;;10.17;86.25;98435.81;4811027;29;20117;-77
2022/04/23 04:30:07;;;;;;;29.80;19.95;;;;;;;10.16;86.59;98433.38;4827629;29;20114;-77
2022/04/23 04:32:32;;;;;;;25.23;18.45;;;;;;;10.16;86.46;98438.94;4802105;29;20043;-77
2022/04/23 04:34:58;;;;;;;27.63;18.75;;;;;;;10.16;86.38;98433.38;4827371;29;20111;-77
2022/04/23 04:37:23;;;;;;;31.20;19.90;;;;;;;10.11;86.76;98437.16;4827647;29;20365;-78
2022/04/23 04:39:49;;;;;;;29.77;20.70;;;;;;;10.10;87.45;98440.28;4811107;29;20041;-77
2022/04/23 04:42:14;;;;;;;30.13;19.90;;;;;;;10.06;87.30;98440.97;4827263;29;20026;-77
2022/04/23 04:44:40;;;;;;;25.02;18.60;;;;;;;10.09;86.09;98439.50;4795953;29;20030;-77
2022/04/23 04:47:06;;;;;;;27.13;19.23;;;;;;;10.04;87.07;98437.72;4810756;29;20038;-77
2022/04/23 04:49:31;;;;;;;28.45;19.63;;;;;;;10.05;86.94;98433.78;4824187;29;20098;-77
2022/04/23 04:51:57;;;;;;;27.02;19.92;;;;;;;10.01;87.02;98432.06;4827436;29;20034;-77
2022/04/23 04:54:22;;;;;;;26.73;19.67;;;;;;;10.02;86.12;98440.03;4795645;29;20060;-77
2022/04/23 04:56:51;;;;;;;27.60;20.25;;;;;;;9.99;86.67;98428.81;4827012;29;20449;-77
2022/04/23 04:59:17;;;;;;;27.45;20.27;;;;;;;9.99;86.28;98426.84;4795750;29;20046;-78
2022/04/23 05:01:42;;;;;;;28.25;20.63;;;;;;;9.94;87.30;98429.81;4831731;29;20034;-77
2022/04/23 05:04:08;;;;;;;29.60;19.67;;;;;;;9.94;87.14;98437.34;4827159;29;20038;-77
2022/04/23 05:06:33;;;;;;;28.80;20.45;;;;;;;9.90;87.27;98434.44;4810865;29;20051;-77
2022/04/23 05:08:59;;;;;;;28.58;20.17;;;;;;;9.91;86.69;98436.06;4826932;29;20035;-77
2022/04/23 05:11:24;;;;;;;28.00;20.42;;;;;;;9.87;87.67;98431.53;4820524;29;20038;-77
2022/04/23 05:13:51;;;;;;;30.30;21.10;;;;;;;9.79;88.28;98433.22;4829306;29;20725;-78
2022/04/23 05:16:16;;;;;;;27.30;20.85;;;;;;;9.78;88.45;98434.41;4819563;29;20031;-77
2022/04/23 05:18:42;;;;;;;31.05;21.52;;;;;;;9.78;88.57;98434.41;4827031;29;20038;-77
2022/04/23 05:21:07;;;;;;;29.20;21.88;;;;;;;9.73;88.95;98431.81;4810712;29;20027;-77
2022/04/23 05:23:33;;;;;;;29.88;21.08;;;;;;;9.76;88.41;98431.16;4795856;29;20511;-78
2022/04/23 05:25:59;;;;;;;31.33;21.80;;;;;;;9.77;87.98;98429.97;4782014;29;20103;-77
2022/04/23 05:28:24;;;;;;;33.88;22.15;;;;;;;9.77;87.95;98438.31;4800168;29;20038;-77
2022/04/23 05:30:50;;;;;;;31.02;21.27;;;;;;;9.78;87.76;98423.31;4805598;29;20039;-77
2022/04/23 05:33:15;;;;;;;31.05;21.75;;;;;;;9.80;87.47;98430.09;4819656;29;20275;-77
2022/04/23 05:35:41;;;;;;;28.17;20.27;;;;;;;9.78;87.28;98439.94;4826376;29;20090;-77
2022/04/23 05:38:07;;;;;;;31.08;20.52;;;;;;;9.80;87.15;98438.44;4826746;29;20030;-77
2022/04/23 05:40:32;;;;;;;29.65;20.35;;;;;;;9.82;87.08;98443.66;4810156;29;20030;-77
2022/04/23 05:42:58;;;;;;;28.42;19.83;;;;;;;9.83;86.34;98437.78;4810319;29;20081;-77
2022/04/23 05:45:30;;;;;;;28.10;20.40;;;;;;;9.88;86.45;98439.50;4826603;29;20035;-77
2022/04/23 05:47:56;;;;;;;30.75;21.25;;;;;;;9.89;86.69;98441.16;4810277;29;20059;-77
2022/04/23 05:50:22;;;;;;;30.65;20.38;;;;;;;9.89;86.73;98441.16;4810217;29;20567;-77
2022/04/23 05:52:48;;;;;;;32.00;22.45;;;;;;;9.88;87.36;98435.94;4810411;29;20034;-77
2022/04/23 05:55:13;;;;;;;29.75;20.40;;;;;;;9.90;86.94;98434.44;4795114;29;20137;-77
2022/04/23 05:57:39;;;;;;;29.40;20.52;;;;;;;9.92;86.96;98432.16;4779988;29;20050;-78
2022/04/23 06:00:06;;;;;;;28.60;19.70;;;;;;;9.99;86.42;98440.72;4796318;29;20050;-73
2022/04/23 06:02:31;;;;;;;27.38;19.25;;;;;;;10.05;85.81;98444.09;4829880;29;20045;-73
2022/04/23 06:04:58;;;;;;;30.70;20.67;;;;;;;10.04;86.48;98437.72;4829809;29;20030;-73
2022/04/23 06:07:23;;;;;;;29.85;20.85;;;;;;;10.10;86.76;98437.53;4798378;29;20035;-73
2022/04/23 06:09:48;;;;;;;27.38;19.40;;;;;;;10.17;84.54;98437.75;4813554;29;20049;-73
2022/04/23 06:12:14;;;;;;;29.83;20.45;;;;;;;10.22;85.83;98434.78;4813233;29;20084;-73
2022/04/23 06:14:39;;;;;;;27.85;19.10;;;;;;;10.25;84.12;98442.41;4829713;29;20488;-73
2022/04/23 06:17:10;;;;;;;27.80;20.67;;;;;;;10.28;85.60;98436.22;4797951;29;20091;-73
2022/04/23 06:19:37;;;;;;;23.08;18.65;;;;;;;10.33;84.89;98435.19;4784010;29;20034;-73
2022/04/23 06:22:03;;;;;;;28.88;20.08;;;;;;;10.38;85.83;98435.78;4783633;29;20030;-73
2022/04/23 06:24:28;;;;;;;26.48;19.58;;;;;;;10.44;84.63;98437.19;4798447;29;20042;-73
2022/04/23 06:26:54;;;;;;;28.10;20.63;;;;;;;10.49;85.05;98436.16;4798143;29;20523;-73
2022/04/23 06:29:19;;;;;;;29.38;20.63;;;;;;;10.55;85.23;98436.75;4828168;29;20515;-73
2022/04/23 06:31:45;;;;;;;28.08;18.73;;;;;;;10.62;83.47;98437.00;4819886;29;20050;-73
2022/04/23 06:34:10;;;;;;;27.70;20.55;;;;;;;10.66;85.08;98432.38;4829208;29;20077;-73
2022/04/23 06:36:36;;;;;;;28.27;20.73;;;;;;;10.68;85.91;98430.88;4829229;29;20053;-74
2022/04/23 06:39:03;;;;;;;31.13;21.77;;;;;;;10.72;86.07;98433.75;4813251;29;20030;-73
2022/04/23 06:41:28;;;;;;;29.65;22.48;;;;;;;10.77;86.59;98435.50;4829271;29;20041;-73
2022/04/23 06:43:54;;;;;;;29.80;21.77;;;;;;;10.80;86.77;98441.16;4812815;29;20034;-73
2022/04/23 06:46:19;;;;;;;31.90;23.42;;;;;;;10.82;85.84;98436.09;4808128;29;20523;-73
2022/04/23 06:48:45;;;;;;;29.88;21.67;;;;;;;10.81;87.12;98437.25;4827246;29;20042;-73
2022/04/23 06:51:10;;;;;;;33.10;22.13;;;;;;;10.82;87.09;98438.84;4812520;29;20034;-73
2022/04/23 06:53:36;;;;;;;32.33;23.15;;;;;;;10.84;86.51;98436.56;4829140;29;20030;-73
2022/04/23 06:56:03;;;;;;;31.63;20.85;;;;;;;10.92;85.99;98440.34;4812448;29;20125;-73
2022/04/23 06:58:28;;;;;;;31.70;23.05;;;;;;;10.94;86.08;98441.63;4829115;29;20038;-73
2022/04/23 07:00:54;;;;;;;31.20;22.52;;;;;;;11.01;86.78;98443.84;4828515;29;20035;-73
2022/04/23 07:03:20;;;;;;;30.48;21.65;;;;;;;11.07;85.83;98444.44;4798703;29;20042;-73
2022/04/23 07:05:46;;;;;;;30.98;22.08;;;;;;;11.11;85.32;98437.81;4797157;29;20030;-73
2022/04/23 07:08:12;;;;;;;29.63;22.77;;;;;;;11.18;85.09;98440.03;4797092;29;20053;-73
2022/04/23 07:10:37;;;;;;;29.52;20.77;;;;;;;11.25;84.16;98440.22;4796588;29;20035;-73
2022/04/23 07:13:03;;;;;;;30.45;21.48;;;;;;;11.31;83.66;98441.63;4797186;29;20034;-73
2022/04/23 07:15:29;;;;;;;28.35;20.55;;;;;;;11.40;83.59;98442.31;4780443;29;20050;-73
2022/04/23 07:17:55;;;;;;;28.58;20.42;;;;;;;11.48;82.64;98436.94;4810942;29;20034;-73
2022/04/23 07:20:20;;;;;;;28.20;20.63;;;;;;;11.52;81.99;98438.69;4769640;29;20030;-73
2022/04/23 07:25:34;;;;;;;29.50;21.10;;;;;;;11.65;82.63;98433.94;4811929;29;20042;-73
2022/04/23 07:28:00;;;;;;;29.23;21.58;;;;;;;11.70;83.61;98432.84;4794203;29;20058;-73
2022/04/23 07:30:26;;;;;;;30.08;21.50;;;;;;;11.73;83.99;98432.13;4824568;29;20495;-73
2022/04/23 07:32:55;;;;;;;27.10;20.70;;;;;;;11.77;84.27;98427.50;4767477;29;20038;-74
2022/04/23 07:38:15;;;;;;;29.98;21.15;;;;;;;11.83;86.05;98423.31;4799139;29;20528;-73
2022/04/23 07:40:41;;;;;;;29.80;21.73;;;;;;;11.88;86.62;98425.88;4796846;29;20030;-74
2022/04/23 07:43:12;;;;;;;28.23;20.85;;;;;;;11.92;86.02;98424.00;4799889;29;20515;-74
2022/04/23 07:45:38;;;;;;;29.08;21.50;;;;;;;12.00;86.19;98420.25;4784960;29;20035;-74
2022/04/23 07:48:04;;;;;;;26.23;20.40;;;;;;;12.07;84.10;98412.13;4809890;29;20044;-74
2022/04/23 07:50:31;;;;;;;27.30;20.50;;;;;;;12.21;82.99;98419.25;4796707;29;20090;-74
2022/04/23 07:52:57;;;;;;;29.77;20.50;;;;;;;12.39;82.26;98408.59;4781277;29;20039;-74
2022/04/23 07:55:23;;;;;;;26.73;20.10;;;;;;;12.54;81.98;98405.03;4796624;29;20038;-74
2022/04/23 07:57:48;;;;;;;30.73;20.02;;;;;;;12.73;80.70;98393.97;4811637;29;20150;-74
2022/04/23 08:00:14;;;;;;;26.75;19.05;;;;;;;12.95;79.58;98397.25;4827904;29;20035;-73
2022/04/23 08:02:40;;;;;;;24.58;18.42;;;;;;;13.14;78.02;98404.88;4828108;29;20046;-74
2022/04/23 08:05:06;;;;;;;23.58;17.75;;;;;;;13.34;77.79;98408.56;4811440;29;20038;-73
2022/04/23 08:07:31;;;;;;;24.15;17.67;;;;;;;13.56;76.49;98407.06;4828067;29;20055;-73
2022/04/23 08:09:56;;;;;;;23.77;17.85;;;;;;;13.74;75.49;98399.09;4811234;29;20038;-73
2022/04/23 08:12:22;;;;;;;24.15;18.38;;;;;;;13.95;75.01;98405.09;4827570;29;20038;-73
2022/04/23 08:14:47;;;;;;;25.52;18.05;;;;;;;14.15;74.70;98414.28;4796238;29;20090;-73
2022/04/23 08:17:13;;;;;;;22.38;17.77;;;;;;;14.35;73.08;98417.00;4813947;29;20041;-74
2022/04/23 08:19:38;;;;;;;26.65;18.23;;;;;;;14.49;72.80;98401.34;4803968;29;20033;-73
2022/04/23 08:22:04;;;;;;;22.67;17.73;;;;;;;14.60;71.54;98404.38;4810941;29;20046;-74
2022/04/23 08:24:31;;;;;;;21.65;18.10;;;;;;;14.77;72.17;98411.44;4781299;29;20046;-74
2022/04/23 08:26:57;;;;;;;22.52;17.73;;;;;;;14.92;71.21;98421.66;4805719;29;20042;-74
2022/04/23 08:32:06;;;;;;;24.02;17.58;;;;;;;15.15;70.21;98406.84;4826197;29;20461;-74
2022/04/23 08:34:32;;;;;;;24.48;18.58;;;;;;;15.19;69.02;98418.91;4792544;29;20055;-74
2022/04/23 08:36:57;;;;;;;23.48;18.20;;;;;;;15.27;68.83;98414.25;4762245;29;20057;-74
2022/04/23 08:39:23;;;;;;;23.73;18.30;;;;;;;15.35;68.99;98410.34;4765700;29;20042;-73
2022/04/23 08:41:48;;;;;;;23.45;18.83;;;;;;;15.46;68.87;98421.69;4765591;29;20034;-73
2022/04/23 08:44:16;;;;;;;21.95;17.52;;;;;;;15.61;67.28;98415.13;4810551;29;20611;-73
2022/04/23 08:46:41;;;;;;;24.08;17.30;;;;;;;15.70;66.57;98415.66;4826674;29;20057;-74
2022/04/23 08:49:10;;;;;;;19.33;16.67;;;;;;;15.84;65.91;98417.84;4825426;29;20030;-74
2022/04/23 08:51:37;;;;;;;21.33;16.92;;;;;;;15.90;66.28;98409.94;4814357;29;20184;-74
2022/04/23 08:54:05;;;;;;;23.77;16.80;;;;;;;15.89;66.38;98416.72;4810153;29;20694;-74
2022/04/23 08:56:31;;;;;;;23.15;17.23;;;;;;;15.95;66.04;98420.78;4795360;29;20586;-74
2022/04/23 08:58:56;;;;;;;23.98;16.90;;;;;;;16.00;64.44;98406.47;4810369;29;20089;-74
2022/04/23 09:01:22;;;;;;;20.70;16.25;;;;;;;15.96;64.76;98411.19;4780428;29;20054;-73
2022/04/23 09:03:48;;;;;;;21.15;16.75;;;;;;;16.00;64.54;98404.47;4810167;29;20456;-74
2022/04/23 09:06:15;;;;;;;19.77;15.70;;;;;;;16.03;65.05;98411.28;4794181;29;20068;-74
2022/04/23 09:09:06;;;;;;;19.83;16.48;;;;;;;16.07;64.22;98409.34;4826356;29;20464;-74
2022/04/23 09:11:35;;;;;;;19.83;15.90;;;;;;;15.99;63.84;98408.47;4794930;29;20091;-74
2022/04/23 09:14:02;;;;;;;27.08;17.85;;;;;;;15.99;65.02;98418.84;4795097;29;20050;-74
2022/04/23 09:24:47;;;;;;;22.00;17.35;;;;;;;16.07;64.37;98420.53;4799932;29;20038;-73
2022/04/23 09:27:13;;;;;;;23.63;16.20;;;;;;;16.06;64.19;98407.72;4794750;29;20069;-74
2022/04/23 09:29:39;;;;;;;23.48;17.98;;;;;;;16.03;64.08;98414.91;4810134;29;20036;-74
2022/04/23 09:32:13;;;;;;;20.67;16.95;;;;;;;16.12;64.16;98417.41;4780491;29;20034;-74
2022/04/23 09:34:38;;;;;;;19.92;17.08;;;;;;;16.18;62.91;98409.47;4782176;29;20062;-74
2022/04/23 09:37:05;;;;;;;23.25;17.67;;;;;;;16.21;63.72;98406.69;4798466;29;20055;-74
2022/04/23 09:39:38;;;;;;;25.77;17.00;;;;;;;16.28;64.31;98406.78;4813704;29;20044;-74
2022/04/23 09:42:14;;;;;;;22.60;17.55;;;;;;;16.35;63.85;98406.03;4778032;29;20057;-73
2022/04/23 09:44:40;;;;;;;21.20;16.55;;;;;;;16.38;63.49;98405.31;4798132;29;20069;-73
2022/04/23 09:47:05;;;;;;;23.08;17.10;;;;;;;16.44;64.46;98402.97;4798544;29;20041;-74
2022/04/23 09:49:31;;;;;;;20.45;15.43;;;;;;;16.53;64.13;98395.03;4798815;29;20041;-74
2022/04/23 09:52:04;;;;;;;21.42;15.32;;;;;;;16.63;62.62;98399.94;4799062;29;20035;-74
2022/04/23 09:54:33;;;;;;;20.13;16.02;;;;;;;16.73;63.56;98398.44;4784097;29;20137;-77
2022/04/23 09:57:00;;;;;;;20.67;15.82;;;;;;;16.84;63.21;98398.56;4771966;29;20126;-77
2022/04/23 09:59:26;;;;;;;18.65;16.08;;;;;;;16.93;63.67;98396.22;4783768;29;20031;-77
2022/04/23 10:01:53;;;;;;;20.45;16.25;;;;;;;16.94;63.30;98395.03;4812496;29;20041;-78
2022/04/23 10:04:26;;;;;;;19.42;16.40;;;;;;;17.05;64.32;98400.72;4798235;29;20038;-77
2022/04/23 10:06:51;;;;;;;20.83;15.77;;;;;;;17.18;63.75;98390.81;4814818;29;20464;-77
2022/04/23 10:09:24;;;;;;;19.95;16.27;;;;;;;17.23;61.37;98390.44;4798502;29;20058;-77
2022/04/23 10:11:50;;;;;;;19.90;15.77;;;;;;;17.27;61.53;98391.25;4813842;29;20043;-77
2022/04/23 10:14:19;;;;;;;21.17;16.13;;;;;;;17.36;60.74;98393.75;4798780;29;20035;-77
2022/04/23 10:16:45;;;;;;;19.75;15.82;;;;;;;17.45;62.45;98390.59;4788568;29;20109;-77
2022/04/23 10:19:10;;;;;;;17.92;14.65;;;;;;;17.53;61.94;98398.66;4813298;29;20062;-77
2022/04/23 10:21:53;;;;;;;17.42;14.90;;;;;;;17.63;60.15;98397.09;4798473;29;20060;-77
2022/04/23 10:24:34;;;;;;;16.02;14.25;;;;;;;17.74;60.52;98402.78;4809108;29;20068;-77
2022/04/23 10:27:07;;;;;;;16.25;14.38;;;;;;;17.83;60.44;98394.84;4798391;29;20038;-77
2022/04/23 10:29:32;;;;;;;;;;;;;;;17.93;60.12;98393.25;4785512;29;20038;-78
2022/04/23 10:32:13;;;;;;;17.55;14.40;;;;;;;18.05;59.29;98396.53;4804406;29;20008;-74
2022/04/23 10:34:39;;;;;;;18.13;14.05;;;;;;;18.20;59.64;98405.81;4819518;29;20054;-73
2022/04/23 10:37:22;;;;;;;19.33;13.85;;;;;;;18.27;58.52;98397.38;4828105;29;20045;-73
2022/04/23 10:39:50;;;;;;;18.13;13.18;;;;;;;18.31;57.22;98398.22;4825874;29;20034;-74
2022/04/23 10:42:17;;;;;;;17.63;13.68;;;;;;;18.37;57.13;98400.66;4832276;29;20105;-73
2022/04/23 10:44:43;;;;;;;15.75;12.88;;;;;;;18.40;58.15;98403.44;4813173;29;20042;-73
2022/04/23 10:47:13;;;;;;;16.02;12.55;;;;;;;18.38;57.69;98408.66;4811882;29;20566;-73
2022/04/23 10:49:38;;;;;;;15.68;12.25;;;;;;;18.42;57.07;98403.06;4841811;29;20042;-74
2022/04/23 10:52:04;;;;;;;15.00;12.32;;;;;;;18.52;56.69;98405.88;4817533;29;20396;-74
2022/04/23 10:54:45;;;;;;;13.85;11.95;;;;;;;18.59;57.89;98407.13;4829056;29;20125;-74
2022/04/23 10:57:11;;;;;;;14.32;11.80;;;;;;;18.65;56.63;98413.94;4828500;29;20046;-74
2022/04/23 10:59:42;;;;;;;13.60;11.35;;;;;;;18.73;56.46;98418.38;4812915;29;20122;-74
2022/04/23 11:02:19;;;;;;;14.20;11.65;;;;;;;18.70;56.70;98417.16;4812432;29;20105;-74
2022/04/23 11:13:48;;;;;;;12.55;10.15;;;;;;;19.27;57.13;98407.97;4815031;29;20066;-74
2022/04/23 11:16:14;;;;;;;12.20;10.38;;;;;;;19.36;55.27;98402.75;4797381;29;20041;-74
2022/04/23 11:18:44;;;;;;;13.55;9.95;;;;;;;19.54;55.27;98399.09;4796886;29;20045;-74
2022/04/23 11:21:32;;;;;;;12.70;10.35;;;;;;;19.65;54.64;98402.69;4828533;29;20054;-74
2022/04/23 11:24:01;;;;;;;11.07;9.70;;;;;;;19.77;55.11;98402.25;4812281;29;20065;-74
2022/04/23 11:26:44;;;;;;;12.50;10.15;;;;;;;19.89;54.80;98398.19;4828392;29;20507;-74
2022/04/23 11:29:10;;;;;;;14.60;11.18;;;;;;;20.03;54.01;98400.16;4823871;29;20053;-74
2022/04/23 11:31:35;;;;;;;12.45;10.07;;;;;;;20.06;54.21;98407.81;4825413;29;20447;-74
2022/04/23 11:34:01;;;;;;;13.93;10.40;;;;;;;20.09;54.22;98401.34;4828068;29;20133;-74
2022/04/23 11:36:34;;;;;;;11.13;9.95;;;;;;;20.06;53.36;98399.34;4828359;29;20045;-74
2022/04/23 11:39:03;;;;;;;11.45;10.18;;;;;;;20.14;53.50;98400.09;4828267;29;20045;-74
2022/04/23 11:41:33;;;;;;;10.43;9.05;;;;;;;20.27;53.09;98393.59;4802527;29;20065;-71
2022/04/23 11:44:13;;;;;;;9.90;8.63;;;;;;;20.43;54.33;98397.97;4828291;29;20037;-71